Time;durP1;ratioP1;P1;durP2;ratioP2;P2;SDS_P1;SDS_P2;PMS_P1;PMS_P2;Temp;Humidity;BMP_temperature;BMP_pressure;BME280_temperature;BME280_humidity;BME280_pressure;Samples;Min_cycle;Max_cycle;Signal;HPM_P1;HPM_P2
2022/09/04 00:00:09;;;;;;;1.38;0.30;;;16.70;47.30;;;;;;4878421;29;20204;-37
2022/09/04 00:02:55;;;;;;;0.30;0.30;;;16.70;47.30;;;;;;4878747;29;20281;-41
2022/09/04 00:05:30;;;;;;;0.93;0.30;;;16.70;47.20;;;;;;4877934;29;20218;-34
2022/09/04 00:08:15;;;;;;;0.80;0.30;;;16.80;47.30;;;;;;4878716;29;20662;-35
2022/09/04 00:10:53;;;;;;;0.43;0.32;;;16.80;47.20;;;;;;4877735;29;20220;-36
2022/09/04 00:13:29;;;;;;;0.57;0.30;;;16.80;47.00;;;;;;4892761;23;20478;-35
2022/09/04 00:16:05;;;;;;;0.20;0.20;;;16.80;46.80;;;;;;4878360;29;20225;-43
2022/09/04 00:18:41;;;;;;;1.15;0.40;;;16.90;46.80;;;;;;4878804;29;20205;-49
2022/09/04 00:21:19;;;;;;;0.50;0.30;;;16.90;46.80;;;;;;4877873;29;20197;-39
2022/09/04 00:23:56;;;;;;;0.63;0.38;;;16.90;46.60;;;;;;4878289;29;20272;-39
2022/09/04 00:26:48;;;;;;;0.20;0.20;;;16.90;46.50;;;;;;4878116;29;20221;-35
2022/09/04 00:29:28;;;;;;;0.93;0.40;;;17.00;46.80;;;;;;4878932;29;20300;-36
2022/09/04 00:32:05;;;;;;;1.20;0.50;;;17.00;46.40;;;;;;4878236;29;20198;-36
2022/09/04 00:34:49;;;;;;;1.48;0.55;;;17.10;46.00;;;;;;4878393;29;20308;-35
2022/09/04 00:37:24;;;;;;;2.92;0.50;;;17.10;45.70;;;;;;4877480;29;20304;-34
2022/09/04 00:39:59;;;;;;;1.23;0.60;;;17.10;45.70;;;;;;4868880;29;20198;-36
2022/09/04 00:43:01;;;;;;;1.48;0.60;;;17.10;45.60;;;;;;4877292;29;20208;-34
2022/09/04 00:45:58;;;;;;;3.20;0.80;;;17.10;45.40;;;;;;4878102;29;20637;-35
2022/09/04 00:48:49;;;;;;;0.40;0.40;;;17.20;45.50;;;;;;4877419;29;20198;-34
2022/09/04 00:51:31;;;;;;;1.13;0.50;;;17.20;45.50;;;;;;4858118;29;20209;-35
2022/09/04 00:54:32;;;;;;;2.45;1.05;;;17.30;45.60;;;;;;4860100;29;20297;-34
2022/09/04 00:57:30;;;;;;;0.95;0.70;;;17.30;45.50;;;;;;4876778;29;20200;-35
2022/09/04 01:00:13;;;;;;;2.03;1.15;;;17.30;45.50;;;;;;4877802;29;20213;-34
2022/09/04 01:03:01;;;;;;;1.55;1.33;;;17.30;45.50;;;;;;4858643;29;20238;-35
2022/09/04 01:05:45;;;;;;;1.27;1.08;;;17.30;45.50;;;;;;4871812;29;20214;-37
2022/09/04 01:08:25;;;;;;;1.38;1.00;;;17.40;45.50;;;;;;4876960;29;20205;-34
2022/09/04 01:11:10;;;;;;;1.40;0.98;;;17.40;45.50;;;;;;4877793;29;20201;-34
2022/09/04 01:13:45;;;;;;;1.40;0.93;;;17.50;45.40;;;;;;4901126;23;20223;-45
2022/09/04 01:16:22;;;;;;;1.00;0.90;;;17.50;45.40;;;;;;4914479;29;20255;-39
2022/09/04 01:19:01;;;;;;;1.35;1.15;;;17.50;45.40;;;;;;4897244;29;20284;-43
2022/09/04 01:22:11;;;;;;;1.35;1.10;;;17.50;45.40;;;;;;4906987;29;20743;-40
2022/09/04 01:24:55;;;;;;;2.50;1.10;;;17.60;45.60;;;;;;4875092;29;20252;-34
2022/09/04 01:27:31;;;;;;;0.90;0.80;;;17.60;45.50;;;;;;4910055;29;20200;-39
2022/09/04 01:30:09;;;;;;;0.80;0.70;;;17.70;45.60;;;;;;4914020;29;20546;-33
2022/09/04 01:32:50;;;;;;;1.48;0.88;;;17.70;45.60;;;;;;4914915;29;20204;-40
2022/09/04 01:35:32;;;;;;;3.55;0.80;;;17.70;45.60;;;;;;4914394;29;20238;-34
2022/09/04 01:38:10;;;;;;;0.73;0.60;;;17.70;45.30;;;;;;4909654;29;20205;-47
2022/09/04 01:40:47;;;;;;;1.50;0.73;;;17.80;45.30;;;;;;4907492;29;20211;-34
2022/09/04 01:43:22;;;;;;;0.80;0.70;;;17.80;45.20;;;;;;4912648;29;20204;-34
2022/09/04 01:46:19;;;;;;;2.97;0.82;;;17.80;45.20;;;;;;4906720;29;20220;-34
2022/09/04 01:48:56;;;;;;;1.58;0.80;;;17.90;45.20;;;;;;4891699;29;20197;-35
2022/09/04 01:51:34;;;;;;;0.70;0.60;;;17.90;45.10;;;;;;4912871;29;20200;-34
2022/09/04 01:54:25;;;;;;;1.10;0.70;;;17.90;45.10;;;;;;4914423;29;20664;-37
2022/09/04 01:57:09;;;;;;;0.50;0.50;;;18.00;45.00;;;;;;4914084;29;20200;-34
2022/09/04 01:59:54;;;;;;;0.60;0.50;;;18.00;45.00;;;;;;4913986;29;20189;-35
2022/09/04 02:02:30;;;;;;;0.52;0.43;;;18.00;44.90;;;;;;4913526;29;20203;-34
2022/09/04 02:05:10;;;;;;;0.60;0.60;;;18.10;45.00;;;;;;4913592;29;20722;-34
2022/09/04 02:07:48;;;;;;;1.15;0.80;;;18.10;45.00;;;;;;4912251;29;20204;-33
2022/09/04 02:10:31;;;;;;;1.23;0.52;;;18.10;44.90;;;;;;4904488;29;20204;-35
2022/09/04 02:13:12;;;;;;;0.77;0.60;;;18.10;45.00;;;;;;4913695;29;20228;-38
2022/09/04 02:15:50;;;;;;;0.75;0.40;;;18.20;44.80;;;;;;4913965;29;20227;-34
2022/09/04 02:18:32;;;;;;;0.47;0.40;;;18.20;44.80;;;;;;4913806;29;20649;-33
2022/09/04 02:21:08;;;;;;;1.02;0.50;;;18.20;44.60;;;;;;4914117;29;20191;-34
2022/09/04 02:23:45;;;;;;;1.00;0.50;;;18.30;44.60;;;;;;4913214;29;20196;-37
2022/09/04 02:26:21;;;;;;;0.50;0.40;;;18.30;45.10;;;;;;4912385;29;20228;-34
2022/09/04 02:29:01;;;;;;;0.65;0.50;;;18.40;45.30;;;;;;4913480;29;20216;-35
2022/09/04 02:31:42;;;;;;;1.15;0.60;;;18.40;45.10;;;;;;4913875;29;20203;-34
2022/09/04 02:34:20;;;;;;;2.03;0.50;;;18.50;45.00;;;;;;4904298;29;20208;-35
2022/09/04 02:36:54;;;;;;;0.50;0.50;;;18.50;44.90;;;;;;4894889;29;20208;-35
2022/09/04 02:39:41;;;;;;;0.68;0.60;;;18.50;44.70;;;;;;4895328;29;20215;-37
2022/09/04 02:42:20;;;;;;;1.52;0.30;;;18.60;44.70;;;;;;4912407;29;20220;-35
2022/09/04 02:45:05;;;;;;;0.75;0.40;;;18.60;44.60;;;;;;4897064;29;20220;-34
2022/09/04 02:47:46;;;;;;;0.82;0.50;;;18.70;44.50;;;;;;4875637;29;20205;-34
2022/09/04 02:50:37;;;;;;;1.33;0.30;;;18.60;45.00;;;;;;4889771;29;20235;-34
2022/09/04 02:53:21;;;;;;;0.50;0.30;;;18.70;44.30;;;;;;4912767;29;20200;-34
2022/09/04 02:56:09;;;;;;;0.38;0.30;;;18.70;44.20;;;;;;4913094;29;20235;-34
2022/09/04 02:58:54;;;;;;;3.17;0.45;;;18.80;43.90;;;;;;4894545;29;20256;-35
2022/09/04 03:01:30;;;;;;;1.05;0.35;;;18.80;43.90;;;;;;4909396;29;20231;-35
2022/09/04 03:04:07;;;;;;;0.45;0.40;;;18.90;43.80;;;;;;4906657;29;20189;-37
2022/09/04 03:06:53;;;;;;;1.40;0.35;;;18.90;43.80;;;;;;4914715;29;20228;-45
2022/09/04 03:09:29;;;;;;;0.32;0.30;;;18.90;43.70;;;;;;4901257;29;20534;-37
2022/09/04 03:12:06;;;;;;;1.58;0.50;;;18.90;44.40;;;;;;4879695;29;20202;-41
2022/09/04 03:14:43;;;;;;;0.20;0.20;;;18.90;43.70;;;;;;4879647;29;20236;-35
2022/09/04 03:17:20;;;;;;;0.88;0.40;;;19.00;43.60;;;;;;4916971;29;20224;-42
2022/09/04 03:19:58;;;;;;;0.30;0.30;;;19.00;43.40;;;;;;4916716;29;20200;-35
2022/09/04 03:22:34;;;;;;;1.52;0.30;;;19.10;43.40;;;;;;4916719;29;20207;-37
2022/09/04 03:25:46;;;;;;;0.52;0.30;;;19.10;43.40;;;;;;4916644;29;20627;-36
2022/09/04 03:28:24;;;;;;;0.32;0.22;;;19.10;43.20;;;;;;4876903;29;20197;-38
2022/09/04 03:30:58;;;;;;;0.93;0.30;;;19.10;43.20;;;;;;4914947;29;20192;-35
2022/09/04 03:33:35;;;;;;;0.57;0.30;;;19.10;43.20;;;;;;4916071;29;20204;-36
2022/09/04 03:36:14;;;;;;;0.35;0.30;;;19.20;43.10;;;;;;4915998;29;20259;-42
2022/09/04 03:38:52;;;;;;;0.93;0.30;;;19.20;43.00;;;;;;4906814;29;20537;-34
2022/09/04 03:41:31;;;;;;;0.50;0.40;;;19.30;43.00;;;;;;4910393;29;20204;-34
2022/09/04 03:44:14;;;;;;;0.30;0.30;;;19.30;42.90;;;;;;4916687;29;20200;-34
2022/09/04 03:46:57;;;;;;;1.55;0.20;;;19.30;42.90;;;;;;4903102;29;20208;-34
2022/09/04 03:49:43;;;;;;;1.27;0.38;;;19.30;42.90;;;;;;4897674;29;20204;-34
2022/09/04 03:52:25;;;;;;;0.68;0.40;;;19.40;42.90;;;;;;4916146;29;20197;-33
2022/09/04 03:55:15;;;;;;;1.02;0.30;;;19.40;42.80;;;;;;4891015;29;20226;-33
2022/09/04 03:58:00;;;;;;;0.30;0.22;;;19.40;42.60;;;;;;4916569;29;20624;-49
2022/09/04 04:00:37;;;;;;;0.82;0.38;;;19.50;42.70;;;;;;4887682;29;20197;-34
2022/09/04 04:03:30;;;;;;;0.68;0.22;;;19.50;42.50;;;;;;4915254;29;20600;-34
2022/09/04 04:06:10;;;;;;;1.00;0.17;;;19.50;42.40;;;;;;4914402;29;20222;-34
2022/09/04 04:09:17;;;;;;;0.95;0.55;;;19.50;42.40;;;;;;4907154;29;20201;-34
2022/09/04 04:12:04;;;;;;;0.55;0.20;;;19.50;42.20;;;;;;4911688;29;20196;-34
2022/09/04 04:14:52;;;;;;;0.45;0.30;;;19.60;42.20;;;;;;4924054;23;20232;-35
2022/09/04 04:17:45;;;;;;;1.17;0.30;;;19.60;42.10;;;;;;4878756;29;20204;-35
2022/09/04 04:20:30;;;;;;;1.50;0.40;;;19.60;42.10;;;;;;4877732;29;20697;-34
2022/09/04 04:23:22;;;;;;;0.85;0.32;;;19.70;42.00;;;;;;4878081;29;20231;-34
2022/09/04 04:26:07;;;;;;;0.32;0.30;;;19.70;41.90;;;;;;4878501;29;20214;-35
2022/09/04 04:29:02;;;;;;;0.20;0.20;;;19.60;41.80;;;;;;4890747;29;20200;-46
2022/09/04 04:32:09;;;;;;;0.28;0.28;;;19.70;41.80;;;;;;4896440;29;20209;-41
2022/09/04 04:34:52;;;;;;;0.20;0.20;;;19.70;41.70;;;;;;4859003;29;20222;-46
2022/09/04 04:37:34;;;;;;;0.77;0.30;;;19.80;42.00;;;;;;4876251;29;20198;-44
2022/09/04 04:40:15;;;;;;;0.25;0.22;;;19.80;41.90;;;;;;4877975;29;20198;-36
2022/09/04 04:42:57;;;;;;;0.57;0.47;;;19.80;41.80;;;;;;4877989;29;20682;-37
2022/09/04 04:45:50;;;;;;;1.08;0.32;;;19.80;41.80;;;;;;4879355;29;20225;-35
2022/09/04 04:48:49;;;;;;;0.85;0.40;;;19.80;41.80;;;;;;4897077;29;20201;-39
2022/09/04 04:51:39;;;;;;;0.93;0.45;;;19.80;41.70;;;;;;4896354;29;20645;-37
2022/09/04 04:54:38;;;;;;;0.20;0.20;;;19.80;41.90;;;;;;4895802;29;20205;-37
2022/09/04 04:57:17;;;;;;;0.38;0.32;;;19.80;41.90;;;;;;4895987;29;20232;-36
2022/09/04 05:00:05;;;;;;;0.65;0.30;;;19.90;42.10;;;;;;4896422;29;20240;-34
2022/09/04 05:02:44;;;;;;;0.30;0.30;;;19.80;42.00;;;;;;4895593;29;20650;-35
2022/09/04 05:05:23;;;;;;;0.25;0.25;;;19.90;42.00;;;;;;4895988;29;20225;-35
2022/09/04 05:08:01;;;;;;;0.20;0.20;;;19.90;41.90;;;;;;4878837;29;20205;-35
2022/09/04 05:10:38;;;;;;;1.13;0.30;;;19.90;41.80;;;;;;4876770;29;20212;-35
2022/09/04 05:13:24;;;;;;;0.40;0.30;;;19.90;41.80;;;;;;4877237;29;20670;-35
2022/09/04 05:16:07;;;;;;;0.40;0.32;;;19.90;41.70;;;;;;4876324;29;20277;-37
2022/09/04 05:18:45;;;;;;;0.28;0.28;;;19.90;41.70;;;;;;4877598;29;20567;-36
2022/09/04 05:21:23;;;;;;;1.85;0.45;;;19.80;41.90;;;;;;4877404;29;20201;-36
2022/09/04 05:24:00;;;;;;;0.40;0.28;;;19.90;41.80;;;;;;4876308;29;20224;-35
2022/09/04 05:26:39;;;;;;;0.38;0.38;;;19.90;42.20;;;;;;4876507;29;20251;-35
2022/09/04 05:29:17;;;;;;;0.40;0.40;;;19.90;42.20;;;;;;4875533;29;20205;-40
2022/09/04 05:31:57;;;;;;;0.50;0.40;;;19.90;42.20;;;;;;4875571;29;20193;-39
2022/09/04 05:34:54;;;;;;;0.30;0.30;;;19.90;42.30;;;;;;4875966;29;20209;-35
2022/09/04 05:37:32;;;;;;;0.30;0.30;;;19.90;42.20;;;;;;4876817;29;20291;-35
2022/09/04 05:40:08;;;;;;;0.40;0.22;;;19.90;42.30;;;;;;4874661;29;20269;-35
2022/09/04 05:42:51;;;;;;;0.65;0.32;;;19.90;42.30;;;;;;4876357;29;20201;-36
2022/09/04 05:45:28;;;;;;;1.80;0.20;;;19.90;42.30;;;;;;4876458;29;20311;-34
2022/09/04 05:48:17;;;;;;;0.20;0.20;;;19.90;42.30;;;;;;4876086;29;20201;-35
2022/09/04 05:51:04;;;;;;;0.30;0.30;;;19.90;42.30;;;;;;4875757;29;20563;-35
2022/09/04 05:53:59;;;;;;;0.30;0.30;;;19.90;42.40;;;;;;4877028;29;20212;-35
2022/09/04 05:57:05;;;;;;;0.52;0.30;;;19.90;42.60;;;;;;4876482;29;20827;-34
2022/09/04 05:59:53;;;;;;;0.20;0.20;;;19.90;42.90;;;;;;4876425;29;20706;-35
2022/09/04 06:02:58;;;;;;;0.30;0.30;;;19.80;43.10;;;;;;4876324;29;20534;-34
2022/09/04 06:05:37;;;;;;;0.40;0.40;;;19.90;43.20;;;;;;4874951;29;20225;-38
2022/09/04 06:08:25;;;;;;;0.20;0.20;;;19.90;43.10;;;;;;4889801;29;20205;-34
2022/09/04 06:11:06;;;;;;;0.20;0.20;;;19.80;42.80;;;;;;4879796;29;20205;-35
2022/09/04 06:14:04;;;;;;;0.35;0.30;;;19.80;42.80;;;;;;4890280;23;20450;-48
2022/09/04 06:16:53;;;;;;;0.45;0.25;;;19.80;42.80;;;;;;4888466;29;20239;-34
2022/09/04 06:19:43;;;;;;;0.43;0.38;;;19.80;43.00;;;;;;4876058;29;20202;-34
2022/09/04 06:22:28;;;;;;;0.93;0.35;;;19.80;43.00;;;;;;4876585;29;20202;-35
2022/09/04 06:25:39;;;;;;;0.98;0.55;;;19.70;43.10;;;;;;4875553;29;20232;-34
2022/09/04 06:28:30;;;;;;;0.20;0.20;;;19.70;43.30;;;;;;4873002;29;20200;-34
2022/09/04 06:31:09;;;;;;;0.28;0.28;;;19.70;43.30;;;;;;4858217;29;20284;-35
2022/09/04 06:33:54;;;;;;;0.30;0.22;;;19.70;43.50;;;;;;4876928;29;20817;-34
2022/09/04 06:36:48;;;;;;;0.63;0.32;;;19.70;43.40;;;;;;4876046;29;20704;-34
2022/09/04 06:39:41;;;;;;;0.30;0.28;;;19.70;43.50;;;;;;4879458;29;20228;-34
2022/09/04 06:42:32;;;;;;;0.50;0.40;;;19.70;43.50;;;;;;4883257;29;20656;-33
2022/09/04 06:45:23;;;;;;;0.28;0.20;;;19.70;43.60;;;;;;4874486;29;20224;-36
2022/09/04 06:48:07;;;;;;;0.70;0.30;;;19.60;43.50;;;;;;4879311;29;20207;-34
2022/09/04 06:50:51;;;;;;;0.50;0.35;;;19.60;43.60;;;;;;4879775;29;20531;-33
2022/09/04 06:53:36;;;;;;;0.38;0.20;;;19.60;43.60;;;;;;4879792;29;20544;-35
2022/09/04 06:56:33;;;;;;;0.52;0.30;;;19.50;43.60;;;;;;4879836;29;20244;-33
2022/09/04 06:59:22;;;;;;;0.63;0.20;;;19.50;43.70;;;;;;4878796;29;20198;-34
2022/09/04 07:02:04;;;;;;;0.20;0.20;;;19.50;43.80;;;;;;4880085;29;20197;-33
2022/09/04 07:04:50;;;;;;;0.28;0.20;;;19.50;43.80;;;;;;4879062;29;20198;-34
2022/09/04 07:07:29;;;;;;;0.40;0.40;;;19.50;43.90;;;;;;4879838;29;20202;-33
2022/09/04 07:10:07;;;;;;;0.30;0.30;;;19.50;43.90;;;;;;4879915;29;20843;-33
2022/09/04 07:16:21;;;;;;;0.70;0.50;;;19.40;43.80;;;;;;4888946;29;20228;-35
2022/09/04 07:19:18;;;;;;;0.75;0.50;;;19.40;43.80;;;;;;4895876;29;20684;-36
2022/09/04 07:22:00;;;;;;;1.27;0.60;;;19.30;43.80;;;;;;4881600;29;20578;-35
2022/09/04 07:24:59;;;;;;;1.63;0.77;;;19.30;43.80;;;;;;4897835;29;20201;-34
2022/09/04 07:27:43;;;;;;;1.13;0.77;;;19.20;43.80;;;;;;4894614;29;20204;-36
2022/09/04 07:30:18;;;;;;;0.65;0.60;;;19.20;44.60;;;;;;4897414;29;20681;-35
2022/09/04 07:32:55;;;;;;;2.05;0.90;;;19.20;44.10;;;;;;4900339;29;20286;-34
2022/09/04 07:35:32;;;;;;;2.22;0.93;;;19.10;44.10;;;;;;4915707;29;20231;-35
2022/09/04 07:38:11;;;;;;;2.80;1.30;;;19.10;44.30;;;;;;4911784;29;20201;-35
2022/09/04 07:40:45;;;;;;;2.47;1.05;;;19.10;44.40;;;;;;4897268;29;20205;-36
2022/09/04 07:43:21;;;;;;;2.08;1.05;;;19.10;44.50;;;;;;4901238;29;20248;-36
2022/09/04 07:46:04;;;;;;;3.83;1.33;;;19.00;44.50;;;;;;4881974;29;20269;-34
2022/09/04 07:48:39;;;;;;;4.35;1.10;;;19.00;44.70;;;;;;4893140;29;20201;-35
2022/09/04 07:51:12;;;;;;;3.33;1.40;;;19.00;44.70;;;;;;4885651;29;20554;-41
2022/09/04 07:54:20;;;;;;;4.63;1.60;;;18.90;44.80;;;;;;4909549;29;20196;-34
2022/09/04 07:57:20;;;;;;;3.60;1.50;;;18.90;44.90;;;;;;4910134;29;20239;-36
2022/09/04 08:00:09;;;;;;;4.25;1.33;;;18.90;45.00;;;;;;4916446;29;20200;-35
2022/09/04 08:03:10;;;;;;;5.90;1.48;;;18.80;45.10;;;;;;4909001;29;20673;-36
2022/09/04 08:05:49;;;;;;;4.35;1.55;;;18.80;45.10;;;;;;4895904;29;20220;-35
2022/09/04 08:08:51;;;;;;;6.05;1.45;;;18.80;45.30;;;;;;4897186;29;20275;-35
2022/09/04 08:11:47;;;;;;;3.03;1.55;;;18.70;45.30;;;;;;4897247;29;20295;-38
2022/09/04 08:14:55;;;;;;;6.28;1.83;;;18.70;45.30;;;;;;4906790;23;20245;-35
2022/09/04 08:17:55;;;;;;;3.03;1.30;;;18.70;45.50;;;;;;4910533;29;20630;-33
2022/09/04 08:20:46;;;;;;;4.00;1.50;;;18.60;45.50;;;;;;4934892;29;20215;-33
2022/09/04 08:23:31;;;;;;;7.40;1.52;;;18.60;45.60;;;;;;4935532;29;20290;-35
2022/09/04 08:26:15;;;;;;;6.63;1.98;;;18.60;45.60;;;;;;4934792;29;20219;-34
2022/09/04 08:29:05;;;;;;;5.10;2.03;;;18.60;45.70;;;;;;4934327;28;20227;-33
2022/09/04 08:31:43;;;;;;;5.43;1.80;;;18.50;45.70;;;;;;4934308;29;20199;-33
2022/09/04 08:34:47;;;;;;;5.15;2.10;;;18.50;45.80;;;;;;4934983;29;20199;-38
2022/09/04 08:37:26;;;;;;;5.32;2.50;;;18.50;46.00;;;;;;4934475;29;20227;-33
2022/09/04 08:40:20;;;;;;;6.53;2.75;;;18.40;46.00;;;;;;4916136;29;20238;-33
2022/09/04 08:43:34;;;;;;;5.68;2.67;;;18.40;46.00;;;;;;4921621;29;20203;-34
2022/09/04 08:46:51;;;;;;;8.57;3.08;;;18.40;46.10;;;;;;4919667;28;20238;-34
2022/09/04 08:49:54;;;;;;;8.65;3.15;;;18.40;46.20;;;;;;4881910;29;20201;-34
2022/09/04 08:53:05;;;;;;;5.80;2.80;;;18.40;46.20;;;;;;4876846;29;20205;-34
2022/09/04 08:56:00;;;;;;;9.15;3.58;;;18.30;46.20;;;;;;4858862;29;20224;-34
2022/09/04 08:59:12;;;;;;;8.68;3.78;;;18.30;46.30;;;;;;4924955;29;20222;-36
2022/09/04 09:02:25;;;;;;;7.07;3.03;;;18.30;46.30;;;;;;4933833;29;20196;-33
2022/09/04 09:05:25;;;;;;;6.88;3.55;;;18.20;46.40;;;;;;4932786;29;21638;-36
2022/09/04 09:08:25;;;;;;;6.55;3.53;;;18.20;46.40;;;;;;4905024;28;20200;-33
2022/09/04 09:11:44;;;;;;;6.93;3.65;;;18.20;46.50;;;;;;4933039;29;20238;-38
2022/09/04 09:14:42;;;;;;;9.75;4.13;;;18.10;46.60;;;;;;4943412;23;20371;-38
2022/09/04 09:17:23;;;;;;;7.47;3.55;;;18.10;46.60;;;;;;4876000;29;20324;-52
2022/09/04 09:20:14;;;;;;;7.13;3.40;;;18.10;46.70;;;;;;4877139;29;20201;-51
2022/09/04 09:23:07;;;;;;;6.03;3.58;;;18.10;46.70;;;;;;4877322;29;20233;-43
2022/09/04 09:25:50;;;;;;;8.40;4.25;;;18.00;46.80;;;;;;4867934;29;20222;-45
2022/09/04 09:29:02;;;;;;;9.73;3.90;;;18.00;46.80;;;;;;4865589;29;20201;-49
2022/09/04 09:32:07;;;;;;;5.75;3.33;;;18.00;46.90;;;;;;4870832;29;20205;-44
2022/09/04 09:35:15;;;;;;;9.05;3.70;;;18.00;46.90;;;;;;4867540;29;20288;-43
2022/09/04 09:38:13;;;;;;;5.82;3.22;;;17.90;46.90;;;;;;4875929;29;20233;-47
2022/09/04 09:41:14;;;;;;;6.25;3.20;;;17.90;47.00;;;;;;4876621;29;20206;-52
2022/09/04 09:44:11;;;;;;;6.25;3.45;;;17.90;47.00;;;;;;4839049;29;20202;-44
2022/09/04 09:47:07;;;;;;;5.05;2.90;;;17.90;47.10;;;;;;4858638;29;20474;-38
2022/09/04 09:50:03;;;;;;;7.07;3.05;;;17.90;47.10;;;;;;4873973;29;20209;-48
2022/09/04 09:53:06;;;;;;;7.07;3.35;;;17.90;47.20;;;;;;4868349;29;20626;-38
2022/09/04 09:56:12;;;;;;;7.57;3.38;;;17.80;47.10;;;;;;4852880;29;20225;-39
2022/09/04 09:59:08;;;;;;;5.97;3.03;;;17.80;47.30;;;;;;4876789;29;20651;-37
2022/09/04 10:02:00;;;;;;;5.75;2.60;;;17.80;47.30;;;;;;4876725;29;20208;-51
2022/09/04 10:04:53;;;;;;;8.00;3.40;;;17.70;47.30;;;;;;4875369;29;20231;-47
2022/09/04 10:07:55;;;;;;;6.93;3.45;;;17.70;47.40;;;;;;4859387;29;20210;-38
2022/09/04 10:10:55;;;;;;;6.57;2.92;;;17.70;47.40;;;;;;4876641;29;20236;-39
2022/09/04 10:16:45;;;;;;;4.78;2.78;;;17.70;47.40;;;;;;4892383;29;20313;-51
2022/09/04 10:19:48;;;;;;;6.30;3.00;;;17.70;47.40;;;;;;4882268;29;20202;-39
2022/09/04 10:22:52;;;;;;;6.95;3.20;;;17.60;47.40;;;;;;4874820;29;20205;-37
2022/09/04 10:25:53;;;;;;;6.70;3.15;;;17.60;47.50;;;;;;4875835;29;20224;-40
2022/09/04 10:29:10;;;;;;;5.88;2.92;;;17.60;47.50;;;;;;4864967;29;20205;-33
2022/09/04 10:31:55;;;;;;;4.95;2.83;;;17.50;47.50;;;;;;4847922;29;20741;-35
2022/09/04 10:34:45;;;;;;;6.30;2.72;;;17.50;47.60;;;;;;4875837;29;20594;-36
2022/09/04 10:37:32;;;;;;;6.65;2.80;;;17.50;47.60;;;;;;4875790;29;20221;-36
2022/09/04 10:43:23;;;;;;;5.40;2.97;;;17.50;47.70;;;;;;4876403;29;20248;-33
2022/09/04 10:46:05;;;;;;;6.22;2.90;;;17.50;48.30;;;;;;4874786;29;20233;-33
2022/09/04 10:48:59;;;;;;;6.40;2.85;;;17.40;47.70;;;;;;4874324;29;20197;-33
2022/09/04 10:51:58;;;;;;;5.45;3.08;;;17.50;47.80;;;;;;4874741;29;20206;-33
2022/09/04 10:55:02;;;;;;;6.50;2.50;;;17.40;47.70;;;;;;4874057;29;20801;-33
2022/09/04 10:57:58;;;;;;;4.28;2.58;;;17.40;47.80;;;;;;4874277;29;20231;-34
2022/09/04 11:00:37;;;;;;;5.95;2.60;;;17.40;47.80;;;;;;4874793;29;20208;-36
2022/09/04 11:03:32;;;;;;;6.20;2.80;;;17.30;47.80;;;;;;4875159;29;20205;-33
2022/09/04 11:06:51;;;;;;;4.32;2.80;;;17.30;47.90;;;;;;4874879;29;20569;-33
2022/09/04 11:09:40;;;;;;;4.30;2.45;;;17.30;47.90;;;;;;4875031;29;20293;-33
2022/09/04 11:12:31;;;;;;;5.28;2.80;;;17.30;48.00;;;;;;4873486;29;20201;-33
2022/09/04 11:15:27;;;;;;;6.30;2.78;;;17.20;48.00;;;;;;4913280;23;20291;-35
2022/09/04 11:18:32;;;;;;;6.07;2.67;;;17.20;48.00;;;;;;4912098;29;20232;-34
2022/09/04 11:21:31;;;;;;;5.50;2.92;;;17.20;48.00;;;;;;4912038;29;20208;-35
2022/09/04 11:24:32;;;;;;;4.75;2.60;;;17.20;48.00;;;;;;4913962;29;20203;-36
2022/09/04 11:27:52;;;;;;;4.93;2.70;;;17.20;48.00;;;;;;4916033;29;20210;-35
2022/09/04 11:30:27;;;;;;;5.60;2.53;;;17.20;48.00;;;;;;4916065;29;20204;-36
2022/09/04 11:33:36;;;;;;;5.47;2.85;;;17.20;48.10;;;;;;4916011;29;20196;-36
2022/09/04 11:36:38;;;;;;;4.07;2.10;;;17.10;48.10;;;;;;4916314;29;20220;-34
2022/09/04 11:39:35;;;;;;;4.70;2.67;;;17.10;48.10;;;;;;4899155;29;20199;-34
2022/09/04 11:42:29;;;;;;;5.00;2.40;;;17.10;48.20;;;;;;4915723;29;20200;-35
2022/09/04 11:45:25;;;;;;;5.35;2.55;;;17.00;48.20;;;;;;4915790;29;20221;-35
2022/09/04 11:48:36;;;;;;;3.55;2.47;;;17.00;48.20;;;;;;4915587;29;20689;-35
2022/09/04 11:51:33;;;;;;;4.57;2.47;;;17.00;48.20;;;;;;4915229;29;20227;-35
2022/09/04 11:54:31;;;;;;;3.65;2.17;;;17.00;48.20;;;;;;4913727;29;20279;-35
2022/09/04 11:57:13;;;;;;;3.38;2.00;;;17.00;48.20;;;;;;4914861;29;20204;-39
2022/09/04 12:00:04;;;;;;;4.18;2.33;;;17.00;48.20;;;;;;4915133;29;20474;-36
2022/09/04 12:03:09;;;;;;;5.80;2.60;;;17.00;48.30;;;;;;4915236;29;20207;-35
2022/09/04 12:06:12;;;;;;;4.57;2.50;;;17.00;48.30;;;;;;4913656;29;20224;-34
2022/09/04 12:09:11;;;;;;;3.95;2.65;;;16.90;48.30;;;;;;4896190;29;20223;-36
2022/09/04 12:12:13;;;;;;;5.25;2.45;;;16.90;48.30;;;;;;4876141;29;20602;-35
2022/09/04 12:15:11;;;;;;;3.85;2.40;;;16.90;48.40;;;;;;4902411;23;20287;-33
2022/09/04 12:18:13;;;;;;;4.45;2.13;;;16.90;48.40;;;;;;4895894;29;20240;-34
2022/09/04 12:21:11;;;;;;;5.30;2.65;;;16.90;48.40;;;;;;4895848;29;20209;-34
2022/09/04 12:24:01;;;;;;;4.93;2.20;;;16.80;48.30;;;;;;4894600;29;20472;-33
2022/09/04 12:27:06;;;;;;;5.28;2.50;;;16.90;48.40;;;;;;4896176;29;20221;-35
2022/09/04 12:30:14;;;;;;;3.75;2.20;;;16.90;48.40;;;;;;4896195;29;20613;-34
2022/09/04 12:33:30;;;;;;;3.70;2.28;;;16.90;48.60;;;;;;4895700;29;20205;-33
2022/09/04 12:36:41;;;;;;;4.63;2.40;;;16.80;48.40;;;;;;4894431;29;20220;-34
2022/09/04 12:40:00;;;;;;;4.22;2.20;;;16.80;48.40;;;;;;4884450;29;20618;-34
2022/09/04 12:42:36;;;;;;;3.60;2.47;;;16.70;48.40;;;;;;4892875;29;20201;-33
2022/09/04 12:45:22;;;;;;;5.97;2.92;;;16.70;48.50;;;;;;4895634;29;20574;-33
2022/09/04 12:48:02;;;;;;;3.55;2.17;;;16.70;48.60;;;;;;4895109;29;20232;-34
2022/09/04 12:50:39;;;;;;;2.80;1.77;;;16.70;48.60;;;;;;4895053;29;20200;-35
2022/09/04 12:53:44;;;;;;;4.28;2.25;;;16.70;48.60;;;;;;4879752;29;20201;-36
2022/09/04 12:56:18;;;;;;;3.97;2.20;;;16.70;48.60;;;;;;4870082;29;20521;-33
2022/09/04 12:59:08;;;;;;;4.70;2.22;;;16.80;48.60;;;;;;4876792;29;20233;-33
2022/09/04 13:01:54;;;;;;;5.10;2.22;;;16.70;48.50;;;;;;4876573;29;20204;-34
2022/09/04 13:04:29;;;;;;;4.35;2.17;;;16.70;48.50;;;;;;4878644;29;20197;-34
2022/09/04 13:07:23;;;;;;;4.22;2.08;;;16.70;48.60;;;;;;4876589;29;20197;-33
2022/09/04 13:10:03;;;;;;;4.93;2.17;;;16.70;48.60;;;;;;4882248;29;20687;-34
2022/09/04 13:12:40;;;;;;;3.45;1.92;;;16.70;48.60;;;;;;4894688;29;20211;-43
2022/09/04 13:15:35;;;;;;;4.47;1.95;;;16.70;48.70;;;;;;4909694;23;20232;-35
2022/09/04 13:18:20;;;;;;;4.13;2.13;;;16.60;48.70;;;;;;4892317;29;20260;-43
2022/09/04 13:21:00;;;;;;;2.83;2.03;;;16.60;48.60;;;;;;4895035;29;20380;-43
2022/09/04 13:23:47;;;;;;;2.22;1.63;;;16.60;48.70;;;;;;4894973;29;20669;-35
2022/09/04 13:26:31;;;;;;;3.67;1.77;;;16.60;48.70;;;;;;4894313;29;20227;-34
2022/09/04 13:29:18;;;;;;;4.07;1.85;;;16.60;48.60;;;;;;4894726;29;20197;-34
2022/09/04 13:32:02;;;;;;;3.92;1.90;;;16.60;48.60;;;;;;4894220;29;20301;-34
2022/09/04 13:34:41;;;;;;;4.70;1.95;;;16.60;48.60;;;;;;4894256;29;20205;-34
2022/09/04 13:37:22;;;;;;;3.75;2.05;;;16.60;48.70;;;;;;4894717;29;20216;-35
2022/09/04 13:40:08;;;;;;;4.63;2.20;;;16.60;49.30;;;;;;4880732;29;20256;-37
2022/09/04 13:43:07;;;;;;;3.70;2.10;;;16.60;48.70;;;;;;4894226;29;20197;-34
2022/09/04 13:45:44;;;;;;;3.67;1.98;;;16.60;48.80;;;;;;4893822;29;20228;-34
2022/09/04 13:48:19;;;;;;;4.13;2.00;;;16.50;48.70;;;;;;4894518;29;20200;-34
2022/09/04 13:50:55;;;;;;;4.13;1.92;;;16.50;48.80;;;;;;4894603;29;20204;-35
2022/09/04 13:53:31;;;;;;;3.53;2.05;;;16.50;48.80;;;;;;4893673;29;20203;-35
2022/09/04 13:56:08;;;;;;;4.18;2.00;;;16.50;48.80;;;;;;4893224;29;20239;-35
2022/09/04 13:58:45;;;;;;;2.55;2.00;;;16.50;48.80;;;;;;4893967;29;20717;-35
2022/09/04 14:01:20;;;;;;;4.20;2.10;;;16.50;48.70;;;;;;4893806;29;20210;-34
2022/09/04 14:03:53;;;;;;;3.28;1.90;;;16.50;48.70;;;;;;4894405;29;20719;-40
2022/09/04 14:06:26;;;;;;;3.20;2.15;;;16.50;48.70;;;;;;4893959;29;20284;-35
2022/09/04 14:09:01;;;;;;;3.70;1.90;;;16.50;48.80;;;;;;4883076;29;20282;-35
2022/09/04 14:11:52;;;;;;;3.60;1.88;;;16.50;48.80;;;;;;4891052;29;20203;-35
2022/09/04 14:15:04;;;;;;;3.72;2.15;;;16.50;48.80;;;;;;4917658;23;20220;-34
2022/09/04 14:17:45;;;;;;;3.92;2.28;;;16.50;48.90;;;;;;4859771;29;20858;-34
2022/09/04 14:20:20;;;;;;;3.05;1.80;;;16.50;48.90;;;;;;4893049;29;20200;-34
2022/09/04 14:22:59;;;;;;;2.45;1.80;;;16.50;48.90;;;;;;4881407;29;20205;-34
2022/09/04 14:25:38;;;;;;;4.75;1.90;;;16.40;48.90;;;;;;4881061;29;20216;-34
2022/09/04 14:28:20;;;;;;;3.80;1.90;;;16.40;48.90;;;;;;4893306;29;20209;-34
2022/09/04 14:31:01;;;;;;;3.88;1.92;;;16.40;48.90;;;;;;4893398;29;20200;-34
2022/09/04 14:33:41;;;;;;;3.08;1.60;;;16.40;48.90;;;;;;4893137;29;20211;-34
2022/09/04 14:36:22;;;;;;;3.40;1.73;;;16.40;48.90;;;;;;4893229;29;20284;-34
2022/09/04 14:39:21;;;;;;;3.00;1.73;;;16.40;48.90;;;;;;4881943;29;20427;-35
2022/09/04 14:42:10;;;;;;;3.30;1.67;;;16.40;48.90;;;;;;4891153;29;20233;-33
2022/09/04 14:44:57;;;;;;;3.72;2.05;;;16.40;48.90;;;;;;4886038;29;20859;-34